Aérodrome :
LOGIN :

S'inscrire | Disclaimer

   EN    FR    IT 

 










Légende :    VFR   VFR Marginal   IFR   IFR Intensif   IFR Très Intensif
Visi : 
Plafond : 
>= 8 km
>= 3000ft
5 à 8 km
1000 à 3000 ft
1500m à 5 km
500 à 1000 ft
800 à 1500m
200 à 500 ft
< 800m
< 200 ft
Symboles :   Orages  Brouillard  Fortes neiges  Fortes précipitations  Vent > 20 kt
SIGMETs :   Divers  Orages  Givrage  Turbulence  Onde Orograph.  Cendres Volcan.






- Altitude de l'aérodrome : 755 ft
- Code IATA : KSC


LZKZ - Kosice

DERNIER METAR :
  • 232030Z 20016KT 9999 FEW040 07/05 Q1005

METARs EXPIRÉS :
  • 232000Z 20014KT 9999 FEW040 07/05 Q1005
  • 231930Z 20013KT 9999 FEW020 08/05 Q1006
  • 231900Z 22016KT 9999 FEW020 SCT042 08/05 Q1007
  • 231830Z 23016KT 9999 FEW020 SCT045 09/05 Q1007
  • 231800Z 23015KT 9999 -RA FEW020 OVC040 08/06 Q1008

TAF TAF LZKZ
Valide du 23 à 18h jusqu'au 24 à 18h UTC


231700Z 2318/2418 22015KT 9999 BKN033 BKN060
TEMPO 2318/2401 24020G30KT 5000 RA SCT015 OVC030
BECMG 2400/2402 34015KT
TEMPO 2401/2410 34020G30KT 5000 SHRA BKN020 SCT040TCU



MET'MAP, la Météo Aéronautique d'un coup d'oeil ! - Copyright ORBIFLY Décembre 2007 - Disclaimer

ORBIFLY MET'MAP TEAM :

Programmation & Développement : Alexandra Zaïnal
Sur une idée originale de : Baudouin d'Aumeries
Assistance à la programmation : Marc-Olivier Méhu
Soutien technique & logistique : Manuel Goepfert

Contact : metmap@orbifly.com




SOURCES & CREDITS :

   NOAA